sensor_id;sensor_type;location;lat;lon;timestamp;temperature;humidity
18446;DHT22;9352;50.888;4.466;2023-09-19T00:02:04;16.00;99.90
18446;DHT22;9352;50.888;4.466;2023-09-19T00:04:35;16.00;99.90
18446;DHT22;9352;50.888;4.466;2023-09-19T00:07:05;15.90;99.90
18446;DHT22;9352;50.888;4.466;2023-09-19T00:09:32;15.90;99.90
18446;DHT22;9352;50.888;4.466;2023-09-19T00:12:03;15.90;99.90
18446;DHT22;9352;50.888;4.466;2023-09-19T00:14:30;15.90;99.90
18446;DHT22;9352;50.888;4.466;2023-09-19T00:17:00;15.90;99.90
18446;DHT22;9352;50.888;4.466;2023-09-19T00:19:31;16.00;99.90
18446;DHT22;9352;50.888;4.466;2023-09-19T00:22:01;15.90;99.90
18446;DHT22;9352;50.888;4.466;2023-09-19T00:24:28;16.00;99.90
18446;DHT22;9352;50.888;4.466;2023-09-19T00:26:54;16.00;99.90
18446;DHT22;9352;50.888;4.466;2023-09-19T00:29:22;15.90;99.90
18446;DHT22;9352;50.888;4.466;2023-09-19T00:31:49;16.00;99.90
18446;DHT22;9352;50.888;4.466;2023-09-19T00:34:16;16.00;99.90
18446;DHT22;9352;50.888;4.466;2023-09-19T00:36:43;15.90;99.90
18446;DHT22;9352;50.888;4.466;2023-09-19T00:39:12;15.90;99.90
18446;DHT22;9352;50.888;4.466;2023-09-19T00:41:39;15.90;99.90
18446;DHT22;9352;50.888;4.466;2023-09-19T00:44:06;15.90;99.90
18446;DHT22;9352;50.888;4.466;2023-09-19T00:46:35;15.90;99.90
18446;DHT22;9352;50.888;4.466;2023-09-19T00:49:02;15.80;99.90
18446;DHT22;9352;50.888;4.466;2023-09-19T00:51:29;15.80;99.90
18446;DHT22;9352;50.888;4.466;2023-09-19T00:53:57;15.80;99.90
18446;DHT22;9352;50.888;4.466;2023-09-19T00:56:26;15.80;99.90
18446;DHT22;9352;50.888;4.466;2023-09-19T00:58:53;15.80;99.90
18446;DHT22;9352;50.888;4.466;2023-09-19T01:01:20;15.70;99.90
18446;DHT22;9352;50.888;4.466;2023-09-19T01:03:47;15.80;99.90
18446;DHT22;9352;50.888;4.466;2023-09-19T01:06:16;15.70;99.90
18446;DHT22;9352;50.888;4.466;2023-09-19T01:08:43;15.70;99.90
18446;DHT22;9352;50.888;4.466;2023-09-19T01:11:16;15.70;99.90
18446;DHT22;9352;50.888;4.466;2023-09-19T01:13:55;15.70;99.90
18446;DHT22;9352;50.888;4.466;2023-09-19T01:16:32;15.70;99.90
18446;DHT22;9352;50.888;4.466;2023-09-19T01:19:24;15.70;99.90
18446;DHT22;9352;50.888;4.466;2023-09-19T01:22:00;15.70;99.90
18446;DHT22;9352;50.888;4.466;2023-09-19T01:27:37;15.70;99.90
18446;DHT22;9352;50.888;4.466;2023-09-19T01:30:14;15.60;99.90
18446;DHT22;9352;50.888;4.466;2023-09-19T01:32:41;15.60;99.90
18446;DHT22;9352;50.888;4.466;2023-09-19T01:35:09;15.60;99.90
18446;DHT22;9352;50.888;4.466;2023-09-19T01:37:38;15.60;99.90
18446;DHT22;9352;50.888;4.466;2023-09-19T01:40:11;15.60;99.90
18446;DHT22;9352;50.888;4.466;2023-09-19T01:42:45;15.60;99.90
18446;DHT22;9352;50.888;4.466;2023-09-19T01:45:26;15.60;99.90
18446;DHT22;9352;50.888;4.466;2023-09-19T01:47:55;15.60;99.90
18446;DHT22;9352;50.888;4.466;2023-09-19T01:50:29;15.60;99.90
18446;DHT22;9352;50.888;4.466;2023-09-19T01:52:59;15.60;99.90
18446;DHT22;9352;50.888;4.466;2023-09-19T01:55:30;15.60;99.90
18446;DHT22;9352;50.888;4.466;2023-09-19T01:58:05;15.60;99.90
18446;DHT22;9352;50.888;4.466;2023-09-19T02:00:37;15.60;99.90
18446;DHT22;9352;50.888;4.466;2023-09-19T02:03:04;15.60;99.90
18446;DHT22;9352;50.888;4.466;2023-09-19T02:05:32;15.60;99.90
18446;DHT22;9352;50.888;4.466;2023-09-19T02:07:58;15.60;99.90
18446;DHT22;9352;50.888;4.466;2023-09-19T02:10:26;15.60;99.90
18446;DHT22;9352;50.888;4.466;2023-09-19T02:12:53;15.60;99.90
18446;DHT22;9352;50.888;4.466;2023-09-19T02:15:20;15.60;99.90
18446;DHT22;9352;50.888;4.466;2023-09-19T02:17:49;15.60;99.90
18446;DHT22;9352;50.888;4.466;2023-09-19T02:20:16;15.60;99.90
18446;DHT22;9352;50.888;4.466;2023-09-19T02:22:45;15.70;99.90
18446;DHT22;9352;50.888;4.466;2023-09-19T02:25:12;15.70;99.90
18446;DHT22;9352;50.888;4.466;2023-09-19T02:27:40;15.70;99.90
18446;DHT22;9352;50.888;4.466;2023-09-19T02:30:08;15.80;99.90
18446;DHT22;9352;50.888;4.466;2023-09-19T02:32:34;15.80;99.90
18446;DHT22;9352;50.888;4.466;2023-09-19T02:35:07;15.90;99.90
18446;DHT22;9352;50.888;4.466;2023-09-19T02:37:36;15.90;99.90
18446;DHT22;9352;50.888;4.466;2023-09-19T02:40:04;15.90;99.90
18446;DHT22;9352;50.888;4.466;2023-09-19T02:42:44;15.90;99.90
18446;DHT22;9352;50.888;4.466;2023-09-19T02:45:14;15.90;99.90
18446;DHT22;9352;50.888;4.466;2023-09-19T02:47:41;15.90;99.90
18446;DHT22;9352;50.888;4.466;2023-09-19T02:50:09;15.90;99.90
18446;DHT22;9352;50.888;4.466;2023-09-19T02:52:37;15.90;99.90
18446;DHT22;9352;50.888;4.466;2023-09-19T02:55:04;15.90;99.90
18446;DHT22;9352;50.888;4.466;2023-09-19T02:57:34;16.00;99.90
18446;DHT22;9352;50.888;4.466;2023-09-19T03:00:02;16.00;99.90
18446;DHT22;9352;50.888;4.466;2023-09-19T03:02:30;16.00;99.90
18446;DHT22;9352;50.888;4.466;2023-09-19T03:04:58;15.90;99.90
18446;DHT22;9352;50.888;4.466;2023-09-19T03:07:27;15.90;99.90
18446;DHT22;9352;50.888;4.466;2023-09-19T03:09:55;15.90;99.90
18446;DHT22;9352;50.888;4.466;2023-09-19T03:12:21;15.80;99.90
18446;DHT22;9352;50.888;4.466;2023-09-19T03:14:48;15.70;99.90
18446;DHT22;9352;50.888;4.466;2023-09-19T03:17:16;15.70;99.90
18446;DHT22;9352;50.888;4.466;2023-09-19T03:19:45;15.70;99.90
18446;DHT22;9352;50.888;4.466;2023-09-19T03:22:13;15.70;99.90
18446;DHT22;9352;50.888;4.466;2023-09-19T03:24:41;15.80;99.90
18446;DHT22;9352;50.888;4.466;2023-09-19T03:27:09;15.80;99.90
18446;DHT22;9352;50.888;4.466;2023-09-19T03:29:36;15.80;99.90
18446;DHT22;9352;50.888;4.466;2023-09-19T03:32:03;15.80;99.90
18446;DHT22;9352;50.888;4.466;2023-09-19T03:34:30;15.80;99.90
18446;DHT22;9352;50.888;4.466;2023-09-19T03:36:57;15.80;99.90
18446;DHT22;9352;50.888;4.466;2023-09-19T03:39:25;15.70;99.90
18446;DHT22;9352;50.888;4.466;2023-09-19T03:41:53;15.70;99.90
18446;DHT22;9352;50.888;4.466;2023-09-19T03:44:20;15.60;99.90
18446;DHT22;9352;50.888;4.466;2023-09-19T03:46:47;15.60;99.90
18446;DHT22;9352;50.888;4.466;2023-09-19T03:49:14;15.50;99.90
18446;DHT22;9352;50.888;4.466;2023-09-19T03:51:41;15.40;99.90
18446;DHT22;9352;50.888;4.466;2023-09-19T03:54:08;15.40;99.90
18446;DHT22;9352;50.888;4.466;2023-09-19T03:56:35;15.30;99.90
18446;DHT22;9352;50.888;4.466;2023-09-19T03:59:03;15.30;99.90
18446;DHT22;9352;50.888;4.466;2023-09-19T04:01:30;15.20;99.90
18446;DHT22;9352;50.888;4.466;2023-09-19T04:03:58;15.30;99.90
18446;DHT22;9352;50.888;4.466;2023-09-19T04:06:33;15.20;99.90
18446;DHT22;9352;50.888;4.466;2023-09-19T04:09:00;15.20;99.90
18446;DHT22;9352;50.888;4.466;2023-09-19T04:11:29;15.10;99.90
18446;DHT22;9352;50.888;4.466;2023-09-19T04:13:55;15.10;99.90
18446;DHT22;9352;50.888;4.466;2023-09-19T04:16:24;15.10;99.90
18446;DHT22;9352;50.888;4.466;2023-09-19T04:18:51;15.10;99.90
18446;DHT22;9352;50.888;4.466;2023-09-19T04:21:17;15.10;99.90
18446;DHT22;9352;50.888;4.466;2023-09-19T04:23:45;15.10;99.90
18446;DHT22;9352;50.888;4.466;2023-09-19T04:26:12;15.10;99.90
18446;DHT22;9352;50.888;4.466;2023-09-19T04:28:39;15.10;99.90
18446;DHT22;9352;50.888;4.466;2023-09-19T04:31:06;15.10;99.90
18446;DHT22;9352;50.888;4.466;2023-09-19T04:33:35;15.10;99.90
18446;DHT22;9352;50.888;4.466;2023-09-19T04:36:03;15.00;99.90
18446;DHT22;9352;50.888;4.466;2023-09-19T04:38:33;15.00;99.90
18446;DHT22;9352;50.888;4.466;2023-09-19T04:41:00;15.00;99.90
18446;DHT22;9352;50.888;4.466;2023-09-19T04:43:27;15.00;99.90
18446;DHT22;9352;50.888;4.466;2023-09-19T04:45:54;15.00;99.90
18446;DHT22;9352;50.888;4.466;2023-09-19T04:48:22;15.00;99.90
18446;DHT22;9352;50.888;4.466;2023-09-19T04:50:52;15.00;99.90
18446;DHT22;9352;50.888;4.466;2023-09-19T04:53:19;15.00;99.90
18446;DHT22;9352;50.888;4.466;2023-09-19T04:55:50;15.00;99.90
18446;DHT22;9352;50.888;4.466;2023-09-19T04:58:18;15.00;99.90
18446;DHT22;9352;50.888;4.466;2023-09-19T05:00:45;15.00;99.90
18446;DHT22;9352;50.888;4.466;2023-09-19T05:03:12;15.00;99.90
18446;DHT22;9352;50.888;4.466;2023-09-19T05:05:39;14.90;99.90
18446;DHT22;9352;50.888;4.466;2023-09-19T05:08:08;14.90;99.90
18446;DHT22;9352;50.888;4.466;2023-09-19T05:10:35;14.90;99.90
18446;DHT22;9352;50.888;4.466;2023-09-19T05:13:03;14.90;99.90
18446;DHT22;9352;50.888;4.466;2023-09-19T05:15:30;14.90;99.90
18446;DHT22;9352;50.888;4.466;2023-09-19T05:17:57;14.90;99.90
18446;DHT22;9352;50.888;4.466;2023-09-19T05:20:24;14.90;99.90
18446;DHT22;9352;50.888;4.466;2023-09-19T05:22:58;14.90;99.90
18446;DHT22;9352;50.888;4.466;2023-09-19T05:25:28;14.90;99.90
18446;DHT22;9352;50.888;4.466;2023-09-19T05:27:57;15.00;99.90
18446;DHT22;9352;50.888;4.466;2023-09-19T05:30:24;15.00;99.90
18446;DHT22;9352;50.888;4.466;2023-09-19T05:32:53;15.00;99.90
18446;DHT22;9352;50.888;4.466;2023-09-19T05:35:20;15.00;99.90
18446;DHT22;9352;50.888;4.466;2023-09-19T05:37:48;15.00;99.90
18446;DHT22;9352;50.888;4.466;2023-09-19T05:40:16;15.00;99.90
18446;DHT22;9352;50.888;4.466;2023-09-19T05:42:45;15.10;99.90
18446;DHT22;9352;50.888;4.466;2023-09-19T05:45:13;15.10;99.90
18446;DHT22;9352;50.888;4.466;2023-09-19T05:47:40;15.10;99.90
18446;DHT22;9352;50.888;4.466;2023-09-19T05:50:10;15.10;99.90
18446;DHT22;9352;50.888;4.466;2023-09-19T05:52:37;15.10;99.90
18446;DHT22;9352;50.888;4.466;2023-09-19T05:55:04;15.20;99.90
18446;DHT22;9352;50.888;4.466;2023-09-19T05:57:33;15.20;99.90
18446;DHT22;9352;50.888;4.466;2023-09-19T06:00:01;15.20;99.90
18446;DHT22;9352;50.888;4.466;2023-09-19T06:02:34;15.20;99.90
18446;DHT22;9352;50.888;4.466;2023-09-19T06:05:01;15.30;99.90
18446;DHT22;9352;50.888;4.466;2023-09-19T06:07:28;15.30;99.90
18446;DHT22;9352;50.888;4.466;2023-09-19T06:10:02;15.30;99.90
18446;DHT22;9352;50.888;4.466;2023-09-19T06:12:31;15.40;99.90
18446;DHT22;9352;50.888;4.466;2023-09-19T06:15:00;15.40;99.90
18446;DHT22;9352;50.888;4.466;2023-09-19T06:17:27;15.40;99.90
18446;DHT22;9352;50.888;4.466;2023-09-19T06:19:54;15.40;99.90
18446;DHT22;9352;50.888;4.466;2023-09-19T06:22:21;15.40;99.90
18446;DHT22;9352;50.888;4.466;2023-09-19T06:24:49;15.50;99.90
18446;DHT22;9352;50.888;4.466;2023-09-19T06:27:16;15.50;99.90
18446;DHT22;9352;50.888;4.466;2023-09-19T06:29:43;15.60;99.90
18446;DHT22;9352;50.888;4.466;2023-09-19T06:32:12;15.60;99.90
18446;DHT22;9352;50.888;4.466;2023-09-19T06:34:39;15.60;99.90
18446;DHT22;9352;50.888;4.466;2023-09-19T06:37:08;15.70;99.90
18446;DHT22;9352;50.888;4.466;2023-09-19T06:39:35;15.70;99.90
18446;DHT22;9352;50.888;4.466;2023-09-19T06:42:02;15.70;99.90
18446;DHT22;9352;50.888;4.466;2023-09-19T06:44:30;15.70;99.90
18446;DHT22;9352;50.888;4.466;2023-09-19T06:46:58;15.80;99.90
18446;DHT22;9352;50.888;4.466;2023-09-19T06:49:26;15.80;99.90
18446;DHT22;9352;50.888;4.466;2023-09-19T06:51:55;15.90;99.90
18446;DHT22;9352;50.888;4.466;2023-09-19T06:54:23;15.90;99.90
18446;DHT22;9352;50.888;4.466;2023-09-19T06:56:49;15.90;99.90
18446;DHT22;9352;50.888;4.466;2023-09-19T06:59:16;15.90;99.90
18446;DHT22;9352;50.888;4.466;2023-09-19T07:01:43;15.90;99.90
18446;DHT22;9352;50.888;4.466;2023-09-19T07:04:10;15.90;99.90
18446;DHT22;9352;50.888;4.466;2023-09-19T07:06:39;16.00;99.90
18446;DHT22;9352;50.888;4.466;2023-09-19T07:09:06;16.00;99.90
18446;DHT22;9352;50.888;4.466;2023-09-19T07:11:33;16.00;99.90
18446;DHT22;9352;50.888;4.466;2023-09-19T07:14:00;16.00;99.90
18446;DHT22;9352;50.888;4.466;2023-09-19T07:16:29;16.00;99.90
18446;DHT22;9352;50.888;4.466;2023-09-19T07:18:55;16.10;99.90
18446;DHT22;9352;50.888;4.466;2023-09-19T07:21:23;16.20;99.90
18446;DHT22;9352;50.888;4.466;2023-09-19T07:23:51;16.20;99.90
18446;DHT22;9352;50.888;4.466;2023-09-19T07:26:18;16.20;99.90
18446;DHT22;9352;50.888;4.466;2023-09-19T07:28:45;16.30;99.90
18446;DHT22;9352;50.888;4.466;2023-09-19T07:31:12;16.40;99.90
18446;DHT22;9352;50.888;4.466;2023-09-19T07:33:39;16.40;99.90
18446;DHT22;9352;50.888;4.466;2023-09-19T07:36:10;16.50;99.90
18446;DHT22;9352;50.888;4.466;2023-09-19T07:38:39;16.60;99.90
18446;DHT22;9352;50.888;4.466;2023-09-19T07:41:07;16.60;99.90
18446;DHT22;9352;50.888;4.466;2023-09-19T07:43:36;16.60;99.90
18446;DHT22;9352;50.888;4.466;2023-09-19T07:46:05;16.70;99.90
18446;DHT22;9352;50.888;4.466;2023-09-19T07:48:34;16.80;99.90
18446;DHT22;9352;50.888;4.466;2023-09-19T07:51:02;16.80;99.90
18446;DHT22;9352;50.888;4.466;2023-09-19T07:53:30;16.90;99.90
18446;DHT22;9352;50.888;4.466;2023-09-19T07:56:04;17.00;99.90
18446;DHT22;9352;50.888;4.466;2023-09-19T07:58:32;17.00;99.90
18446;DHT22;9352;50.888;4.466;2023-09-19T08:01:04;17.10;99.90
18446;DHT22;9352;50.888;4.466;2023-09-19T08:03:32;17.10;99.90
18446;DHT22;9352;50.888;4.466;2023-09-19T08:05:59;17.10;99.90
18446;DHT22;9352;50.888;4.466;2023-09-19T08:08:26;17.20;99.90
18446;DHT22;9352;50.888;4.466;2023-09-19T08:10:53;17.20;99.90
18446;DHT22;9352;50.888;4.466;2023-09-19T08:13:22;17.30;99.90
18446;DHT22;9352;50.888;4.466;2023-09-19T08:15:50;17.30;99.90
18446;DHT22;9352;50.888;4.466;2023-09-19T08:18:18;17.50;99.90
18446;DHT22;9352;50.888;4.466;2023-09-19T08:20:49;17.60;99.90
18446;DHT22;9352;50.888;4.466;2023-09-19T08:23:16;17.70;99.90
18446;DHT22;9352;50.888;4.466;2023-09-19T08:25:45;17.70;99.90
18446;DHT22;9352;50.888;4.466;2023-09-19T08:28:12;17.80;99.90
18446;DHT22;9352;50.888;4.466;2023-09-19T08:30:44;17.80;99.90
18446;DHT22;9352;50.888;4.466;2023-09-19T08:33:12;18.00;99.90
18446;DHT22;9352;50.888;4.466;2023-09-19T08:35:40;18.00;99.90
18446;DHT22;9352;50.888;4.466;2023-09-19T08:38:08;18.00;99.90
18446;DHT22;9352;50.888;4.466;2023-09-19T08:40:37;18.10;99.90
18446;DHT22;9352;50.888;4.466;2023-09-19T08:43:05;18.10;99.90
18446;DHT22;9352;50.888;4.466;2023-09-19T08:45:32;18.20;99.90
18446;DHT22;9352;50.888;4.466;2023-09-19T08:48:11;18.40;99.90
18446;DHT22;9352;50.888;4.466;2023-09-19T08:50:43;18.70;99.90
18446;DHT22;9352;50.888;4.466;2023-09-19T08:53:19;19.00;99.90
18446;DHT22;9352;50.888;4.466;2023-09-19T08:55:51;19.30;99.90
18446;DHT22;9352;50.888;4.466;2023-09-19T08:58:21;19.40;99.90
18446;DHT22;9352;50.888;4.466;2023-09-19T09:00:54;19.60;99.90
18446;DHT22;9352;50.888;4.466;2023-09-19T09:03:25;19.90;99.90
18446;DHT22;9352;50.888;4.466;2023-09-19T09:05:52;20.00;99.90
18446;DHT22;9352;50.888;4.466;2023-09-19T09:08:19;20.20;99.90
18446;DHT22;9352;50.888;4.466;2023-09-19T09:10:47;20.30;99.90
18446;DHT22;9352;50.888;4.466;2023-09-19T09:13:14;20.60;99.90
18446;DHT22;9352;50.888;4.466;2023-09-19T09:15:42;20.80;99.90
18446;DHT22;9352;50.888;4.466;2023-09-19T09:18:10;20.80;99.90
18446;DHT22;9352;50.888;4.466;2023-09-19T09:20:38;20.90;99.90
18446;DHT22;9352;50.888;4.466;2023-09-19T09:23:05;20.90;99.90
18446;DHT22;9352;50.888;4.466;2023-09-19T09:25:51;20.90;99.90
18446;DHT22;9352;50.888;4.466;2023-09-19T09:28:23;21.00;99.90
18446;DHT22;9352;50.888;4.466;2023-09-19T09:30:50;21.10;99.90
18446;DHT22;9352;50.888;4.466;2023-09-19T09:33:18;21.00;99.90
18446;DHT22;9352;50.888;4.466;2023-09-19T09:35:50;21.00;99.90
18446;DHT22;9352;50.888;4.466;2023-09-19T09:38:19;21.00;99.90
18446;DHT22;9352;50.888;4.466;2023-09-19T09:40:47;21.00;99.90
18446;DHT22;9352;50.888;4.466;2023-09-19T09:43:29;21.00;99.90
18446;DHT22;9352;50.888;4.466;2023-09-19T09:46:13;20.90;99.90
18446;DHT22;9352;50.888;4.466;2023-09-19T09:49:10;20.90;99.90
18446;DHT22;9352;50.888;4.466;2023-09-19T09:51:59;20.90;99.90
18446;DHT22;9352;50.888;4.466;2023-09-19T09:54:29;20.80;99.90
18446;DHT22;9352;50.888;4.466;2023-09-19T09:57:03;20.70;99.90
18446;DHT22;9352;50.888;4.466;2023-09-19T09:59:46;20.50;99.90
18446;DHT22;9352;50.888;4.466;2023-09-19T10:02:14;20.40;99.90
18446;DHT22;9352;50.888;4.466;2023-09-19T10:04:46;20.30;99.90
18446;DHT22;9352;50.888;4.466;2023-09-19T10:07:26;20.40;99.90
18446;DHT22;9352;50.888;4.466;2023-09-19T10:10:02;20.30;99.90
18446;DHT22;9352;50.888;4.466;2023-09-19T10:12:43;20.30;99.90
18446;DHT22;9352;50.888;4.466;2023-09-19T10:15:12;20.40;99.90
18446;DHT22;9352;50.888;4.466;2023-09-19T10:17:42;20.60;99.90
18446;DHT22;9352;50.888;4.466;2023-09-19T10:20:12;20.90;99.90
18446;DHT22;9352;50.888;4.466;2023-09-19T10:23:06;21.40;99.90
18446;DHT22;9352;50.888;4.466;2023-09-19T10:25:37;22.00;99.90
18446;DHT22;9352;50.888;4.466;2023-09-19T10:28:06;22.20;99.90
18446;DHT22;9352;50.888;4.466;2023-09-19T10:30:37;22.50;99.90
18446;DHT22;9352;50.888;4.466;2023-09-19T10:33:11;22.80;99.90
18446;DHT22;9352;50.888;4.466;2023-09-19T10:35:40;23.10;99.90
18446;DHT22;9352;50.888;4.466;2023-09-19T10:38:10;23.40;99.90
18446;DHT22;9352;50.888;4.466;2023-09-19T10:40:38;23.60;99.90
18446;DHT22;9352;50.888;4.466;2023-09-19T10:43:12;23.70;99.90
18446;DHT22;9352;50.888;4.466;2023-09-19T10:45:40;23.60;99.90
18446;DHT22;9352;50.888;4.466;2023-09-19T10:48:07;23.20;99.90
18446;DHT22;9352;50.888;4.466;2023-09-19T10:50:41;22.80;99.90
18446;DHT22;9352;50.888;4.466;2023-09-19T10:53:12;22.50;99.90
18446;DHT22;9352;50.888;4.466;2023-09-19T10:55:41;22.50;99.90
18446;DHT22;9352;50.888;4.466;2023-09-19T10:58:25;22.60;99.90
18446;DHT22;9352;50.888;4.466;2023-09-19T11:00:55;22.90;99.90
18446;DHT22;9352;50.888;4.466;2023-09-19T11:03:23;23.50;99.90
18446;DHT22;9352;50.888;4.466;2023-09-19T11:06:16;24.20;99.90
18446;DHT22;9352;50.888;4.466;2023-09-19T11:08:59;24.70;99.90
18446;DHT22;9352;50.888;4.466;2023-09-19T11:11:46;25.20;99.90
18446;DHT22;9352;50.888;4.466;2023-09-19T11:14:39;25.60;99.90
18446;DHT22;9352;50.888;4.466;2023-09-19T11:17:40;26.20;99.90
18446;DHT22;9352;50.888;4.466;2023-09-19T11:20:21;27.00;99.90
18446;DHT22;9352;50.888;4.466;2023-09-19T11:23:22;26.60;99.90
18446;DHT22;9352;50.888;4.466;2023-09-19T11:25:53;26.40;99.90
18446;DHT22;9352;50.888;4.466;2023-09-19T11:28:30;26.70;99.90
18446;DHT22;9352;50.888;4.466;2023-09-19T11:30:57;27.40;99.90
18446;DHT22;9352;50.888;4.466;2023-09-19T11:33:25;27.50;99.90
18446;DHT22;9352;50.888;4.466;2023-09-19T11:36:04;27.20;99.90
18446;DHT22;9352;50.888;4.466;2023-09-19T11:38:57;26.90;99.90
18446;DHT22;9352;50.888;4.466;2023-09-19T11:41:40;26.00;99.90
18446;DHT22;9352;50.888;4.466;2023-09-19T11:44:32;25.10;99.90
18446;DHT22;9352;50.888;4.466;2023-09-19T11:47:05;24.40;99.90
18446;DHT22;9352;50.888;4.466;2023-09-19T11:49:32;24.40;99.90
18446;DHT22;9352;50.888;4.466;2023-09-19T11:52:01;24.40;99.90
18446;DHT22;9352;50.888;4.466;2023-09-19T11:54:31;24.40;99.90
18446;DHT22;9352;50.888;4.466;2023-09-19T11:57:00;24.40;99.90
18446;DHT22;9352;50.888;4.466;2023-09-19T11:59:29;24.40;99.90
18446;DHT22;9352;50.888;4.466;2023-09-19T12:01:57;24.40;99.90
18446;DHT22;9352;50.888;4.466;2023-09-19T12:04:35;24.00;99.90
18446;DHT22;9352;50.888;4.466;2023-09-19T12:07:04;24.00;99.90
18446;DHT22;9352;50.888;4.466;2023-09-19T12:09:39;23.70;99.90
18446;DHT22;9352;50.888;4.466;2023-09-19T12:12:10;23.50;99.90
18446;DHT22;9352;50.888;4.466;2023-09-19T12:14:41;23.40;99.90
18446;DHT22;9352;50.888;4.466;2023-09-19T12:17:09;23.20;99.90
18446;DHT22;9352;50.888;4.466;2023-09-19T12:19:35;23.00;99.90
18446;DHT22;9352;50.888;4.466;2023-09-19T12:22:03;22.80;99.90
18446;DHT22;9352;50.888;4.466;2023-09-19T12:24:31;23.30;99.90
18446;DHT22;9352;50.888;4.466;2023-09-19T12:27:03;23.40;99.90
18446;DHT22;9352;50.888;4.466;2023-09-19T12:29:42;23.50;99.90
18446;DHT22;9352;50.888;4.466;2023-09-19T12:32:09;23.50;99.90
18446;DHT22;9352;50.888;4.466;2023-09-19T12:34:36;23.90;99.90
18446;DHT22;9352;50.888;4.466;2023-09-19T12:37:09;24.10;99.90
18446;DHT22;9352;50.888;4.466;2023-09-19T12:39:42;24.30;99.90
18446;DHT22;9352;50.888;4.466;2023-09-19T12:42:10;24.00;99.90
18446;DHT22;9352;50.888;4.466;2023-09-19T12:44:42;24.50;99.90
18446;DHT22;9352;50.888;4.466;2023-09-19T12:47:15;24.70;99.90
18446;DHT22;9352;50.888;4.466;2023-09-19T12:50:11;25.00;99.90
18446;DHT22;9352;50.888;4.466;2023-09-19T12:52:44;25.10;99.90
18446;DHT22;9352;50.888;4.466;2023-09-19T12:55:23;25.00;99.90
18446;DHT22;9352;50.888;4.466;2023-09-19T13:00:46;25.00;99.90
18446;DHT22;9352;50.888;4.466;2023-09-19T13:03:18;24.90;99.90
18446;DHT22;9352;50.888;4.466;2023-09-19T13:05:51;24.30;99.90
18446;DHT22;9352;50.888;4.466;2023-09-19T13:08:25;24.50;99.90
18446;DHT22;9352;50.888;4.466;2023-09-19T13:11:10;24.40;99.90
18446;DHT22;9352;50.888;4.466;2023-09-19T13:13:42;24.30;99.90
18446;DHT22;9352;50.888;4.466;2023-09-19T13:16:12;23.90;99.90
18446;DHT22;9352;50.888;4.466;2023-09-19T13:18:49;23.60;99.90
18446;DHT22;9352;50.888;4.466;2023-09-19T13:21:29;23.50;99.90
18446;DHT22;9352;50.888;4.466;2023-09-19T13:24:18;23.20;99.90
18446;DHT22;9352;50.888;4.466;2023-09-19T13:26:45;23.00;99.90
18446;DHT22;9352;50.888;4.466;2023-09-19T13:29:12;22.90;99.90
18446;DHT22;9352;50.888;4.466;2023-09-19T13:31:41;22.80;99.90
18446;DHT22;9352;50.888;4.466;2023-09-19T13:34:08;22.80;99.90
18446;DHT22;9352;50.888;4.466;2023-09-19T13:36:35;22.90;99.90
18446;DHT22;9352;50.888;4.466;2023-09-19T13:39:03;23.00;99.90
18446;DHT22;9352;50.888;4.466;2023-09-19T13:41:32;23.10;99.90
18446;DHT22;9352;50.888;4.466;2023-09-19T13:44:02;23.30;99.90
18446;DHT22;9352;50.888;4.466;2023-09-19T13:46:30;23.20;99.90
18446;DHT22;9352;50.888;4.466;2023-09-19T13:49:00;22.90;99.90
18446;DHT22;9352;50.888;4.466;2023-09-19T13:51:29;22.70;99.90
18446;DHT22;9352;50.888;4.466;2023-09-19T13:53:56;22.60;99.90
18446;DHT22;9352;50.888;4.466;2023-09-19T13:56:23;22.60;99.90
18446;DHT22;9352;50.888;4.466;2023-09-19T13:58:50;22.80;99.90
18446;DHT22;9352;50.888;4.466;2023-09-19T14:01:17;23.10;99.90
18446;DHT22;9352;50.888;4.466;2023-09-19T14:03:44;23.10;99.90
18446;DHT22;9352;50.888;4.466;2023-09-19T14:06:17;22.90;99.90
18446;DHT22;9352;50.888;4.466;2023-09-19T14:08:44;22.80;99.90
18446;DHT22;9352;50.888;4.466;2023-09-19T14:11:13;22.60;99.90
18446;DHT22;9352;50.888;4.466;2023-09-19T14:13:42;22.30;99.90
18446;DHT22;9352;50.888;4.466;2023-09-19T14:16:12;22.00;99.90
18446;DHT22;9352;50.888;4.466;2023-09-19T14:18:39;22.00;99.90
18446;DHT22;9352;50.888;4.466;2023-09-19T14:21:07;21.90;99.90
18446;DHT22;9352;50.888;4.466;2023-09-19T14:23:38;21.80;99.90
18446;DHT22;9352;50.888;4.466;2023-09-19T14:26:05;22.40;99.90
18446;DHT22;9352;50.888;4.466;2023-09-19T14:28:32;23.70;99.90
18446;DHT22;9352;50.888;4.466;2023-09-19T14:31:04;23.60;99.90
18446;DHT22;9352;50.888;4.466;2023-09-19T14:33:31;23.80;99.90
18446;DHT22;9352;50.888;4.466;2023-09-19T14:36:00;24.90;99.90
18446;DHT22;9352;50.888;4.466;2023-09-19T14:38:28;26.00;99.90
18446;DHT22;9352;50.888;4.466;2023-09-19T14:41:00;26.20;99.90
18446;DHT22;9352;50.888;4.466;2023-09-19T14:43:27;26.50;99.90
18446;DHT22;9352;50.888;4.466;2023-09-19T14:45:55;28.70;99.90
18446;DHT22;9352;50.888;4.466;2023-09-19T14:48:22;30.00;99.90
18446;DHT22;9352;50.888;4.466;2023-09-19T14:50:51;30.10;99.90
18446;DHT22;9352;50.888;4.466;2023-09-19T14:53:19;28.30;99.90
18446;DHT22;9352;50.888;4.466;2023-09-19T14:55:46;26.80;99.90
18446;DHT22;9352;50.888;4.466;2023-09-19T14:58:18;25.70;99.90
18446;DHT22;9352;50.888;4.466;2023-09-19T15:00:46;24.70;99.90
18446;DHT22;9352;50.888;4.466;2023-09-19T15:03:13;23.80;99.90
18446;DHT22;9352;50.888;4.466;2023-09-19T15:05:40;23.20;99.90
18446;DHT22;9352;50.888;4.466;2023-09-19T15:08:07;22.80;99.90
18446;DHT22;9352;50.888;4.466;2023-09-19T15:10:34;22.60;99.90
18446;DHT22;9352;50.888;4.466;2023-09-19T15:13:01;22.40;99.90
18446;DHT22;9352;50.888;4.466;2023-09-19T15:15:31;22.30;99.90
18446;DHT22;9352;50.888;4.466;2023-09-19T15:17:58;22.40;99.90
18446;DHT22;9352;50.888;4.466;2023-09-19T15:20:25;22.40;99.90
18446;DHT22;9352;50.888;4.466;2023-09-19T15:22:52;22.30;99.90
18446;DHT22;9352;50.888;4.466;2023-09-19T15:25:19;22.00;99.90
18446;DHT22;9352;50.888;4.466;2023-09-19T15:27:46;21.90;99.90
18446;DHT22;9352;50.888;4.466;2023-09-19T15:30:15;21.80;99.90
18446;DHT22;9352;50.888;4.466;2023-09-19T15:32:43;21.80;99.90
18446;DHT22;9352;50.888;4.466;2023-09-19T15:35:10;21.80;99.90
18446;DHT22;9352;50.888;4.466;2023-09-19T15:37:39;21.60;99.90
18446;DHT22;9352;50.888;4.466;2023-09-19T15:40:07;21.40;99.90
18446;DHT22;9352;50.888;4.466;2023-09-19T15:42:36;21.20;99.90
18446;DHT22;9352;50.888;4.466;2023-09-19T15:45:04;21.00;99.90
18446;DHT22;9352;50.888;4.466;2023-09-19T15:47:31;20.80;99.90
18446;DHT22;9352;50.888;4.466;2023-09-19T15:50:00;20.80;99.90
18446;DHT22;9352;50.888;4.466;2023-09-19T15:52:28;20.90;99.90
18446;DHT22;9352;50.888;4.466;2023-09-19T15:54:55;21.00;99.90
18446;DHT22;9352;50.888;4.466;2023-09-19T15:57:22;21.00;99.90
18446;DHT22;9352;50.888;4.466;2023-09-19T15:59:50;20.90;99.90
18446;DHT22;9352;50.888;4.466;2023-09-19T16:02:16;20.80;99.90
18446;DHT22;9352;50.888;4.466;2023-09-19T16:04:43;20.80;99.90
18446;DHT22;9352;50.888;4.466;2023-09-19T16:07:12;20.70;99.90
18446;DHT22;9352;50.888;4.466;2023-09-19T16:09:39;20.60;99.90